createdAt,value
2022-07-27T00:00:57.941Z,19.10
2022-07-27T00:03:25.574Z,19.10
2022-07-27T00:05:52.734Z,18.90
2022-07-27T00:08:20.643Z,18.90
2022-07-27T00:10:48.012Z,19.00
2022-07-27T00:13:15.133Z,18.90
2022-07-27T00:15:43.278Z,18.90
2022-07-27T00:18:10.436Z,18.80
2022-07-27T00:20:39.899Z,18.80
2022-07-27T00:23:06.944Z,18.70
2022-07-27T00:25:34.204Z,18.80
2022-07-27T00:28:01.267Z,18.70
2022-07-27T00:30:28.885Z,18.60
2022-07-27T00:32:57.062Z,18.50
2022-07-27T00:35:25.406Z,18.30
2022-07-27T00:37:52.552Z,18.10
2022-07-27T00:40:19.651Z,18.20
2022-07-27T00:42:46.698Z,18.10
2022-07-27T00:45:13.757Z,18.10
2022-07-27T00:47:40.796Z,18.10
2022-07-27T00:50:08.332Z,18.00
2022-07-27T00:52:36.667Z,18.10
2022-07-27T00:55:04.453Z,18.00
2022-07-27T00:57:31.593Z,18.10
2022-07-27T00:59:58.671Z,18.10
2022-07-27T01:02:26.558Z,18.10
2022-07-27T01:04:57.134Z,18.00
2022-07-27T01:07:26.054Z,18.00
2022-07-27T01:09:58.883Z,18.00
2022-07-27T01:12:29.530Z,18.10
2022-07-27T01:14:58.096Z,18.10
2022-07-27T01:17:27.199Z,18.10
2022-07-27T01:19:54.288Z,18.10
2022-07-27T01:22:21.302Z,18.10
2022-07-27T01:24:50.262Z,18.20
2022-07-27T01:27:17.241Z,18.20
2022-07-27T01:29:44.291Z,18.40
2022-07-27T01:32:11.334Z,18.30
2022-07-27T01:34:38.367Z,18.40
2022-07-27T01:37:05.875Z,18.40
2022-07-27T01:39:33.598Z,18.40
2022-07-27T01:42:01.677Z,18.40
2022-07-27T01:44:29.119Z,18.40
2022-07-27T01:46:56.136Z,18.30
2022-07-27T01:49:23.395Z,18.30
2022-07-27T01:51:50.382Z,18.30
2022-07-27T01:54:18.031Z,18.30
2022-07-27T01:56:45.366Z,18.30
2022-07-27T01:59:16.045Z,18.30
2022-07-27T02:01:44.312Z,18.30
2022-07-27T02:04:11.431Z,18.30
2022-07-27T02:06:38.509Z,18.40
2022-07-27T02:09:05.607Z,18.40
2022-07-27T02:11:51.000Z,18.50
2022-07-27T02:14:17.985Z,18.30
2022-07-27T02:16:48.375Z,18.20
2022-07-27T02:19:17.289Z,18.30
2022-07-27T02:21:45.533Z,18.10
2022-07-27T02:24:12.531Z,18.00
2022-07-27T02:26:39.909Z,18.00
2022-07-27T02:29:07.007Z,17.90
2022-07-27T02:31:34.047Z,17.90
2022-07-27T02:34:01.064Z,18.00
2022-07-27T02:36:30.962Z,18.00
2022-07-27T02:38:58.243Z,17.90
2022-07-27T02:41:25.465Z,17.90
2022-07-27T02:43:52.482Z,18.00
2022-07-27T02:46:19.772Z,18.00
2022-07-27T02:48:47.113Z,18.10
2022-07-27T02:51:15.302Z,18.00
2022-07-27T02:53:42.460Z,17.90
2022-07-27T02:56:09.633Z,17.90
2022-07-27T02:58:37.609Z,18.10
2022-07-27T03:01:05.670Z,18.10
2022-07-27T03:03:36.209Z,18.10
2022-07-27T03:06:05.923Z,18.10
2022-07-27T03:08:33.052Z,18.10
2022-07-27T03:10:59.982Z,18.10
2022-07-27T03:13:28.258Z,18.10
2022-07-27T03:15:55.900Z,18.00
2022-07-27T03:18:22.991Z,18.00
2022-07-27T03:20:50.018Z,18.00
2022-07-27T03:23:20.885Z,17.90
2022-07-27T03:25:47.881Z,18.00
2022-07-27T03:28:14.943Z,17.90
2022-07-27T03:30:41.975Z,17.90
2022-07-27T03:33:08.993Z,17.90
2022-07-27T03:35:36.065Z,17.90
2022-07-27T03:38:03.651Z,17.90
2022-07-27T03:40:32.873Z,18.00
2022-07-27T03:43:00.611Z,17.80
2022-07-27T03:45:28.038Z,17.80
2022-07-27T03:47:55.168Z,17.80
2022-07-27T03:50:22.853Z,17.70
2022-07-27T03:52:50.703Z,17.60
2022-07-27T03:55:18.234Z,17.50
2022-07-27T03:57:45.613Z,17.50
2022-07-27T04:00:14.125Z,17.50
2022-07-27T04:02:41.611Z,17.40
2022-07-27T04:05:09.728Z,17.40
2022-07-27T04:07:36.699Z,17.40
2022-07-27T04:10:04.851Z,17.50
2022-07-27T04:12:31.961Z,17.40
2022-07-27T04:14:59.026Z,17.40
2022-07-27T04:17:55.127Z,17.40
2022-07-27T04:20:13.309Z,17.40
2022-07-27T04:22:41.927Z,17.50
2022-07-27T04:25:09.373Z,17.50
2022-07-27T04:27:36.384Z,17.50
2022-07-27T04:30:09.280Z,17.60
2022-07-27T04:32:37.061Z,17.70
2022-07-27T04:35:04.730Z,17.60
2022-07-27T04:37:33.288Z,17.50
2022-07-27T04:40:00.986Z,17.40
2022-07-27T04:42:30.109Z,17.50
2022-07-27T04:44:57.422Z,17.50
2022-07-27T04:47:24.377Z,17.60
2022-07-27T04:49:51.425Z,17.60
2022-07-27T04:52:19.072Z,17.60
2022-07-27T04:54:54.330Z,17.60
2022-07-27T04:57:23.031Z,17.70
2022-07-27T04:59:50.054Z,17.70
2022-07-27T05:02:17.526Z,17.70
2022-07-27T05:04:44.634Z,17.40
2022-07-27T05:07:11.636Z,17.40
2022-07-27T05:09:38.783Z,17.40
2022-07-27T05:12:05.945Z,17.50
2022-07-27T05:14:32.917Z,17.60
2022-07-27T05:17:00.012Z,17.50
2022-07-27T05:19:40.720Z,17.50
2022-07-27T05:22:09.329Z,17.60
2022-07-27T05:24:36.450Z,17.70
2022-07-27T05:27:03.574Z,17.70
2022-07-27T05:29:30.500Z,17.70
2022-07-27T05:31:57.550Z,17.50
2022-07-27T05:34:24.646Z,17.60
2022-07-27T05:36:51.635Z,17.50
2022-07-27T05:39:18.871Z,17.60
2022-07-27T05:41:46.129Z,17.80
2022-07-27T05:44:15.969Z,17.80
2022-07-27T05:46:42.924Z,17.90
2022-07-27T05:49:11.854Z,18.00
2022-07-27T05:51:39.146Z,18.10
2022-07-27T05:54:06.242Z,18.20
2022-07-27T05:56:33.295Z,18.30
2022-07-27T05:59:05.021Z,18.40
2022-07-27T06:01:34.297Z,18.10
2022-07-27T06:04:01.418Z,18.40
2022-07-27T06:06:46.988Z,18.40
2022-07-27T06:09:14.590Z,18.50
2022-07-27T06:11:42.254Z,18.70
2022-07-27T06:14:09.612Z,18.60
2022-07-27T06:16:36.870Z,18.60
2022-07-27T06:19:03.991Z,18.70
2022-07-27T06:21:31.854Z,18.50
2022-07-27T06:23:58.854Z,18.50
2022-07-27T06:26:25.846Z,18.50
2022-07-27T06:28:58.726Z,18.50
2022-07-27T06:31:35.382Z,18.20
2022-07-27T06:34:03.180Z,18.20
2022-07-27T06:36:30.191Z,18.10
2022-07-27T06:38:57.133Z,18.00
2022-07-27T06:41:24.150Z,18.00
2022-07-27T06:43:51.095Z,18.20
2022-07-27T06:46:18.131Z,18.10
2022-07-27T06:48:45.135Z,18.10
2022-07-27T06:51:12.128Z,18.20
2022-07-27T06:53:39.101Z,18.30
2022-07-27T06:56:08.343Z,18.60
2022-07-27T06:58:37.521Z,18.70
2022-07-27T07:01:05.105Z,18.60
2022-07-27T07:03:32.274Z,18.60
2022-07-27T07:05:59.377Z,18.50
2022-07-27T07:08:26.447Z,18.60
2022-07-27T07:10:53.478Z,19.10
2022-07-27T07:13:20.457Z,19.10
2022-07-27T07:15:47.499Z,19.00
2022-07-27T07:18:14.649Z,19.10
2022-07-27T07:20:42.167Z,19.20
2022-07-27T07:23:09.534Z,19.40
2022-07-27T07:25:37.366Z,19.60
2022-07-27T07:28:05.170Z,19.40
2022-07-27T07:30:32.274Z,19.60
2022-07-27T07:32:59.375Z,19.60
2022-07-27T07:35:26.544Z,19.60
2022-07-27T07:37:53.551Z,19.80
2022-07-27T07:43:08.044Z,20.20
2022-07-27T07:45:38.204Z,19.90
2022-07-27T07:48:14.407Z,20.00
2022-07-27T07:50:41.452Z,20.00
2022-07-27T07:53:08.408Z,20.30
2022-07-27T07:55:35.393Z,20.20
2022-07-27T07:58:02.417Z,20.30
2022-07-27T08:00:30.740Z,20.20
2022-07-27T08:02:58.329Z,20.40
2022-07-27T08:05:26.298Z,20.60
2022-07-27T08:07:53.836Z,20.60
2022-07-27T08:10:22.801Z,20.60
2022-07-27T08:12:55.026Z,20.60
2022-07-27T08:15:34.615Z,20.60
2022-07-27T08:18:05.028Z,20.70
2022-07-27T08:20:32.696Z,20.70
2022-07-27T08:23:00.595Z,20.80
2022-07-27T08:25:27.713Z,20.90
2022-07-27T08:27:56.141Z,21.00
2022-07-27T08:30:24.451Z,21.00
2022-07-27T08:32:55.042Z,21.10
2022-07-27T08:35:22.783Z,21.30
2022-07-27T08:37:50.100Z,21.30
2022-07-27T08:43:06.156Z,21.20
2022-07-27T08:45:34.190Z,21.40
2022-07-27T08:48:01.961Z,21.40
2022-07-27T08:50:30.627Z,21.50
2022-07-27T08:53:07.298Z,21.60
2022-07-27T08:55:39.768Z,21.50
2022-07-27T08:58:08.155Z,21.50
2022-07-27T09:00:38.196Z,21.70
2022-07-27T09:03:05.470Z,21.90
2022-07-27T09:05:37.059Z,22.20
2022-07-27T09:08:15.186Z,22.20
2022-07-27T09:10:42.848Z,22.30
2022-07-27T09:13:20.363Z,22.30
2022-07-27T09:16:16.367Z,21.90
2022-07-27T09:18:37.700Z,22.00
2022-07-27T09:21:24.401Z,22.20
2022-07-27T09:23:54.583Z,21.90
2022-07-27T09:26:34.851Z,21.90
2022-07-27T09:29:03.729Z,21.50
2022-07-27T09:31:31.413Z,21.60
2022-07-27T09:34:01.240Z,22.00
2022-07-27T09:36:30.478Z,22.10
2022-07-27T09:39:03.000Z,22.20
2022-07-27T09:41:42.183Z,21.90
2022-07-27T09:46:57.011Z,21.40
2022-07-27T09:49:27.184Z,21.50
2022-07-27T09:51:59.879Z,21.50
2022-07-27T09:54:42.014Z,21.70
2022-07-27T09:57:09.790Z,21.90
2022-07-27T09:59:37.139Z,22.30
2022-07-27T10:02:05.296Z,22.60
2022-07-27T10:04:33.587Z,22.80
2022-07-27T10:07:04.439Z,23.10
2022-07-27T10:09:34.959Z,23.50
2022-07-27T10:12:04.668Z,23.40
2022-07-27T10:14:32.649Z,23.20
2022-07-27T10:16:59.909Z,23.00
2022-07-27T10:19:34.349Z,23.10
2022-07-27T10:22:01.428Z,23.90
2022-07-27T10:24:39.439Z,24.10
2022-07-27T10:27:20.305Z,23.90
2022-07-27T10:29:51.959Z,24.20
2022-07-27T10:32:31.697Z,23.80
2022-07-27T10:34:59.820Z,24.40
2022-07-27T10:37:34.583Z,24.20
2022-07-27T10:40:27.728Z,24.00
2022-07-27T10:43:16.658Z,23.30
2022-07-27T10:46:01.971Z,23.70
2022-07-27T10:48:37.545Z,23.60
2022-07-27T10:51:08.274Z,23.20
2022-07-27T10:54:09.379Z,23.30
2022-07-27T10:56:48.095Z,23.80
2022-07-27T10:59:15.326Z,23.80
2022-07-27T11:01:58.711Z,24.00
2022-07-27T11:04:26.172Z,24.40
2022-07-27T11:07:23.926Z,24.60
2022-07-27T11:10:04.372Z,25.00
2022-07-27T11:12:32.092Z,25.70
2022-07-27T11:15:01.089Z,25.10
2022-07-27T11:20:23.756Z,25.50
2022-07-27T11:23:34.326Z,25.80
2022-07-27T11:25:37.785Z,26.20
2022-07-27T11:28:07.843Z,26.50
2022-07-27T11:30:35.023Z,26.20
2022-07-27T11:33:07.918Z,25.60
2022-07-27T11:35:35.000Z,25.60
2022-07-27T11:38:05.534Z,25.30
2022-07-27T11:40:57.001Z,25.30
2022-07-27T11:43:45.163Z,25.80
2022-07-27T11:46:18.711Z,25.60
2022-07-27T11:49:17.783Z,25.60
2022-07-27T11:51:45.527Z,25.60
2022-07-27T11:54:38.299Z,25.60
2022-07-27T11:57:06.659Z,25.60
2022-07-27T11:59:36.860Z,25.50
2022-07-27T12:02:08.519Z,25.70
2022-07-27T12:04:40.571Z,25.20
2022-07-27T12:07:32.123Z,25.30
2022-07-27T12:10:02.116Z,25.40
2022-07-27T12:12:33.603Z,25.00
2022-07-27T12:18:06.517Z,25.20
2022-07-27T12:20:35.605Z,26.50
2022-07-27T12:23:09.376Z,28.00
2022-07-27T12:25:37.474Z,29.90
2022-07-27T12:28:13.569Z,31.60
2022-07-27T12:30:49.038Z,32.60
2022-07-27T12:33:28.594Z,33.80
2022-07-27T12:35:56.143Z,35.00
2022-07-27T12:38:23.179Z,35.50
2022-07-27T12:41:01.219Z,35.70
2022-07-27T12:43:28.611Z,34.10
2022-07-27T12:45:56.112Z,33.60
2022-07-27T12:48:24.379Z,34.10
2022-07-27T12:51:03.471Z,35.70
2022-07-27T12:53:31.503Z,37.00
2022-07-27T12:56:08.132Z,36.20
2022-07-27T12:58:36.217Z,36.50
2022-07-27T13:01:04.482Z,36.30
2022-07-27T13:03:31.584Z,35.40
2022-07-27T13:05:58.528Z,36.10
2022-07-27T13:08:25.595Z,34.20
2022-07-27T13:10:52.609Z,32.50
2022-07-27T13:13:24.869Z,32.80
2022-07-27T13:15:52.165Z,34.10
2022-07-27T13:18:23.421Z,35.00
2022-07-27T13:20:51.598Z,36.10
2022-07-27T13:23:18.957Z,36.40
2022-07-27T13:25:45.970Z,35.80
2022-07-27T13:28:13.281Z,34.00
2022-07-27T13:30:40.586Z,32.90
2022-07-27T13:33:07.735Z,34.50
2022-07-27T13:35:35.235Z,33.40
2022-07-27T13:38:02.393Z,31.60
2022-07-27T13:40:29.565Z,32.10
2022-07-27T13:42:56.597Z,32.00
2022-07-27T13:45:23.763Z,32.70
2022-07-27T13:47:50.866Z,33.30
2022-07-27T13:50:19.798Z,32.20
2022-07-27T13:52:48.410Z,31.30
2022-07-27T13:55:17.076Z,31.50
2022-07-27T13:57:44.735Z,32.40
2022-07-27T14:00:13.144Z,31.10
2022-07-27T14:02:40.955Z,29.80
2022-07-27T14:05:13.172Z,27.80
2022-07-27T14:07:42.873Z,27.40
2022-07-27T14:10:30.225Z,27.10
2022-07-27T14:13:08.370Z,28.00
2022-07-27T14:15:54.501Z,29.80
2022-07-27T14:18:24.456Z,30.50
2022-07-27T14:20:51.487Z,29.30
2022-07-27T14:23:18.585Z,29.20
2022-07-27T14:25:45.672Z,31.80
2022-07-27T14:28:12.637Z,32.50
2022-07-27T14:30:39.683Z,34.70
2022-07-27T14:33:06.613Z,36.20
2022-07-27T14:35:39.975Z,36.80
2022-07-27T14:38:08.159Z,35.40
2022-07-27T14:40:35.397Z,34.80
2022-07-27T14:43:02.413Z,34.10
2022-07-27T14:45:44.879Z,33.30
2022-07-27T14:48:28.238Z,33.60
2022-07-27T14:51:04.132Z,32.00
2022-07-27T14:53:31.268Z,33.40
2022-07-27T14:55:58.407Z,34.20
2022-07-27T14:58:25.475Z,36.30
2022-07-27T15:00:52.957Z,37.30
2022-07-27T15:03:21.088Z,37.20
2022-07-27T15:05:49.358Z,36.30
2022-07-27T15:08:21.473Z,34.50
2022-07-27T15:10:49.180Z,31.20
2022-07-27T15:13:17.792Z,28.60
2022-07-27T15:15:48.483Z,30.60
2022-07-27T15:18:18.713Z,32.30
2022-07-27T15:20:46.294Z,32.40
2022-07-27T15:23:13.766Z,34.10
2022-07-27T15:25:40.844Z,33.00
2022-07-27T15:28:07.980Z,34.90
2022-07-27T15:30:38.395Z,34.10
2022-07-27T15:33:06.515Z,34.70
2022-07-27T15:35:33.639Z,35.50
2022-07-27T15:38:00.946Z,33.70
2022-07-27T15:40:36.938Z,34.20
2022-07-27T15:43:12.485Z,34.90
2022-07-27T15:45:41.053Z,33.70
2022-07-27T15:48:10.227Z,31.70
2022-07-27T15:50:42.085Z,30.30
2022-07-27T15:53:11.142Z,30.80
2022-07-27T15:55:38.406Z,31.60
2022-07-27T15:58:06.322Z,31.70
2022-07-27T16:00:39.088Z,32.90
2022-07-27T16:03:06.876Z,32.00
2022-07-27T16:05:33.894Z,32.30
2022-07-27T16:08:01.011Z,32.50
2022-07-27T16:10:29.963Z,32.40
2022-07-27T16:12:57.530Z,33.20
2022-07-27T16:15:44.650Z,35.70
2022-07-27T16:18:12.096Z,35.40
2022-07-27T16:20:39.380Z,33.50
2022-07-27T16:23:18.180Z,31.00
2022-07-27T16:26:07.824Z,29.00
2022-07-27T16:28:44.822Z,27.20
2022-07-27T16:31:16.679Z,26.50
2022-07-27T16:33:44.673Z,25.50
2022-07-27T16:36:11.821Z,25.00
2022-07-27T16:38:49.956Z,24.90
2022-07-27T16:41:19.745Z,25.90
2022-07-27T16:43:47.295Z,25.50
2022-07-27T16:46:14.646Z,24.70
2022-07-27T16:48:43.248Z,25.60
2022-07-27T16:51:12.419Z,25.40
2022-07-27T16:53:41.078Z,25.30
2022-07-27T16:56:08.990Z,25.30
2022-07-27T16:58:37.239Z,27.00
2022-07-27T17:01:04.620Z,29.50
2022-07-27T17:03:31.665Z,30.90
2022-07-27T17:06:02.154Z,31.80
2022-07-27T17:08:32.561Z,32.80
2022-07-27T17:11:02.423Z,33.60
2022-07-27T17:13:33.546Z,32.30
2022-07-27T17:16:03.447Z,31.10
2022-07-27T17:18:37.129Z,31.40
2022-07-27T17:21:07.492Z,32.30
2022-07-27T17:23:38.194Z,32.70
2022-07-27T17:26:09.760Z,33.20
2022-07-27T17:28:39.663Z,33.30
2022-07-27T17:31:12.224Z,33.80
2022-07-27T17:33:40.788Z,33.30
2022-07-27T17:36:14.466Z,33.10
2022-07-27T17:38:46.767Z,33.10
2022-07-27T17:41:14.553Z,32.30
2022-07-27T17:43:42.132Z,32.40
2022-07-27T17:46:10.834Z,32.70
2022-07-27T17:48:38.740Z,32.50
2022-07-27T17:51:07.147Z,32.20
2022-07-27T17:53:34.503Z,32.10
2022-07-27T17:56:02.872Z,32.20
2022-07-27T17:58:30.772Z,31.90
2022-07-27T18:00:58.309Z,31.60
2022-07-27T18:03:25.798Z,31.30
2022-07-27T18:05:52.939Z,30.60
2022-07-27T18:08:19.936Z,30.70
2022-07-27T18:10:47.097Z,29.80
2022-07-27T18:13:14.073Z,27.40
2022-07-27T18:15:47.034Z,26.30
2022-07-27T18:18:24.646Z,25.20
2022-07-27T18:20:54.394Z,24.60
2022-07-27T18:23:23.581Z,24.10
2022-07-27T18:25:50.872Z,23.60
2022-07-27T18:28:18.978Z,23.10
2022-07-27T18:30:47.271Z,22.90
2022-07-27T18:33:15.350Z,22.60
2022-07-27T18:35:43.338Z,22.40
2022-07-27T18:38:11.075Z,22.10
2022-07-27T18:40:43.356Z,22.00
2022-07-27T18:43:10.951Z,21.90
2022-07-27T18:45:39.264Z,21.80
2022-07-27T18:48:08.512Z,21.60
2022-07-27T18:50:39.349Z,21.40
2022-07-27T18:53:07.682Z,21.30
2022-07-27T18:55:34.868Z,21.10
2022-07-27T18:58:01.972Z,21.00
2022-07-27T19:00:30.021Z,20.80
2022-07-27T19:02:57.971Z,20.80
2022-07-27T19:05:30.498Z,20.70
2022-07-27T19:08:11.389Z,20.50
2022-07-27T19:10:41.733Z,20.40
2022-07-27T19:13:09.116Z,20.30
2022-07-27T19:15:37.195Z,20.20
2022-07-27T19:18:05.197Z,20.10
2022-07-27T19:20:32.236Z,19.90
2022-07-27T19:23:00.661Z,19.60
2022-07-27T19:25:30.316Z,19.60
2022-07-27T19:27:57.830Z,19.40
2022-07-27T19:30:24.860Z,19.40
2022-07-27T19:32:51.969Z,19.30
2022-07-27T19:35:18.998Z,19.30
2022-07-27T19:37:46.022Z,19.20
2022-07-27T19:40:43.560Z,19.10
2022-07-27T19:43:00.307Z,19.00
2022-07-27T19:45:27.349Z,18.90
2022-07-27T19:47:54.270Z,18.80
2022-07-27T19:50:26.629Z,18.70
2022-07-27T19:52:53.735Z,18.70
2022-07-27T19:55:20.792Z,18.70
2022-07-27T19:57:47.797Z,18.60
2022-07-27T20:00:15.322Z,18.50
2022-07-27T20:02:42.571Z,18.30
2022-07-27T20:05:09.806Z,18.30
2022-07-27T20:07:37.398Z,18.20
2022-07-27T20:10:05.890Z,18.20
2022-07-27T20:12:32.964Z,18.10
2022-07-27T20:15:00.481Z,18.00
2022-07-27T20:17:27.740Z,18.00
2022-07-27T20:19:55.255Z,17.90
2022-07-27T20:22:22.487Z,17.90
2022-07-27T20:24:49.435Z,17.80
2022-07-27T20:27:16.438Z,17.70
2022-07-27T20:29:43.370Z,17.60
2022-07-27T20:32:10.563Z,17.50
2022-07-27T20:34:37.913Z,17.50
2022-07-27T20:37:04.847Z,17.40
2022-07-27T20:39:31.988Z,17.30
2022-07-27T20:41:58.929Z,17.30
2022-07-27T20:44:27.588Z,17.20
2022-07-27T20:46:54.560Z,17.20
2022-07-27T20:49:21.924Z,17.10
2022-07-27T20:51:48.884Z,17.00
2022-07-27T20:54:15.982Z,16.90
2022-07-27T20:56:42.948Z,16.90
2022-07-27T20:59:16.485Z,16.80
2022-07-27T21:01:44.287Z,16.70
2022-07-27T21:04:11.334Z,16.60
2022-07-27T21:06:38.441Z,16.60
2022-07-27T21:09:05.420Z,16.50
2022-07-27T21:11:32.531Z,16.40
2022-07-27T21:13:59.454Z,16.40
2022-07-27T21:16:26.447Z,16.40
2022-07-27T21:18:53.597Z,16.30
2022-07-27T21:21:25.514Z,16.20
2022-07-27T21:24:12.994Z,16.10
2022-07-27T21:26:40.143Z,16.00
2022-07-27T21:29:09.432Z,15.80
2022-07-27T21:31:37.738Z,15.80
2022-07-27T21:34:05.440Z,15.70
2022-07-27T21:36:33.843Z,15.70
2022-07-27T21:39:00.836Z,15.60
2022-07-27T21:41:27.776Z,15.60
2022-07-27T21:43:54.890Z,15.60
2022-07-27T21:46:21.882Z,15.60
2022-07-27T21:48:49.043Z,15.60
2022-07-27T21:51:20.172Z,15.60
2022-07-27T21:53:48.806Z,15.50
2022-07-27T21:56:16.492Z,15.50
2022-07-27T21:58:45.901Z,15.30
2022-07-27T22:01:13.766Z,15.30
2022-07-27T22:03:44.767Z,15.20
2022-07-27T22:06:12.889Z,15.10
2022-07-27T22:08:39.930Z,15.00
2022-07-27T22:11:07.355Z,15.00
2022-07-27T22:13:34.501Z,14.90
2022-07-27T22:16:01.825Z,14.80
2022-07-27T22:18:31.160Z,14.90
2022-07-27T22:20:58.669Z,14.80
2022-07-27T22:23:25.634Z,14.70
2022-07-27T22:25:52.605Z,14.60
2022-07-27T22:28:20.539Z,14.60
2022-07-27T22:31:16.544Z,14.50
2022-07-27T22:33:38.208Z,14.50
2022-07-27T22:36:07.049Z,14.40
2022-07-27T22:38:34.082Z,14.30
2022-07-27T22:41:01.076Z,14.30
2022-07-27T22:43:28.010Z,14.30
2022-07-27T22:45:55.597Z,14.40
2022-07-27T22:48:22.994Z,14.30
2022-07-27T22:50:50.018Z,14.30
2022-07-27T22:53:17.513Z,14.20
2022-07-27T22:55:44.945Z,14.10
2022-07-27T22:58:11.876Z,14.00
2022-07-27T23:00:39.501Z,14.00
2022-07-27T23:03:06.547Z,14.00
2022-07-27T23:05:33.638Z,14.00
2022-07-27T23:08:03.928Z,14.00
2022-07-27T23:10:45.886Z,14.10
2022-07-27T23:13:17.796Z,14.20
2022-07-27T23:15:46.476Z,14.20
2022-07-27T23:18:16.883Z,14.20
2022-07-27T23:20:44.329Z,13.90
2022-07-27T23:23:15.836Z,13.90
2022-07-27T23:25:47.233Z,13.90
2022-07-27T23:28:14.791Z,13.90
2022-07-27T23:30:42.209Z,14.00
2022-07-27T23:33:09.287Z,13.90
2022-07-27T23:35:36.462Z,13.70
2022-07-27T23:38:03.478Z,13.70
2022-07-27T23:40:31.009Z,13.70
2022-07-27T23:42:57.927Z,13.70
2022-07-27T23:45:24.902Z,13.50
2022-07-27T23:47:52.021Z,13.40
2022-07-27T23:50:21.096Z,13.40
2022-07-27T23:52:50.432Z,13.30
2022-07-27T23:55:17.476Z,13.30
2022-07-27T23:57:44.418Z,13.20
